Рудник Сопка Кварцевая

СКИДКИ НА СМАРТФОНЫ!

Карта отелей и гостиниц, располагающихся рядом с аэропортом Рудник Сопка Кварцевая :

Рудник Сопка Кварцевая Магаданская область 62° 29' 48.876" N, 159° 45' 51.3" E
Код аэродрома ИКАО
HE2E
Код аэродрома RU
ХЕ2Е
Координаты
N62.49691° E159.76425°
Превышение над уровнем моря
364
Основная полоса
Курс магнитный
Длина основной ВПП
Ширина основной ВПП
Покрытие основной ВПП
Освещение ВПП
Тип: 
Вертодром
Класс аэродрома: 
Принадлежность: 
ГА
Статус: 
Действующий
Сайт: 
E-mail аэродрома: 
Страна: 
Россия
Регион: 
Магаданская область
Город: 
Дополнительная информация: 

Скидки на навигаторы!

Найти трансфер

С помощью этой формы Вы можете найти трансфер из аэропорта Рудник Сопка Кварцевая в город, аэропорт или вокзал:

Погода в аэропортах:

Авиационная погода в Волгограде

Регион: 
Погода METAR: 
URWW 190400Z 01003MPS 9999 -SHRA SCT070CB 21/18 Q1012 R24/010070 TEMPO 1000 SHRA BKN003 BKN040CB
Время наблюдения
2022-08-19T04:00:00Z
Температура C
21.0
Точка росы
18.0
Направление ветра
10
Скорость ветра (узлы)
6
Метео видимость
6.21
Облачность
SCT
Нижняя граница облачности (футы)
7000
Явления погоды
-SHRA
Условия полета
VFR
Аэропорт подробнее: 
SCT – разбросанная отдельная облачность;
-SHRA - слабый ливневой дождь;

Авиационная погода в Кневичи

Регион: 
Погода METAR: 
UHWW 190400Z 18007G12MPS 9999 -SHRA SCT015 BKN040CB 24/22 Q0997 R25L/250060 NOSIG RMK QFE747
Время наблюдения
2022-08-19T04:00:00Z
Температура C
24.0
Точка росы
22.0
Направление ветра
180
Скорость ветра (узлы)
14
Метео видимость
6.21
Облачность
SCT
BKN
Нижняя граница облачности (футы)
1500
4000
Явления погоды
-SHRA
Условия полета
VFR
Аэропорт подробнее: 
SCT – разбросанная отдельная облачность; BKN – значительная (рассеянная, разорванная) облачность;
-SHRA - слабый ливневой дождь;

Авиационная погода в Сургуте

Регион: 
Погода METAR: 
USRR 190300Z 34004MPS 9999 -SHRA SCT010 BKN017CB 10/09 Q1021 R25/290060 NOSIG RMK QFE760
Время наблюдения
2022-08-19T03:00:00Z
Температура C
10.0
Точка росы
9.0
Направление ветра
340
Скорость ветра (узлы)
8
Метео видимость
6.21
Облачность
SCT
BKN
Нижняя граница облачности (футы)
1000
1700
Явления погоды
-SHRA
Условия полета
MVFR
Аэропорт подробнее: 
SCT – разбросанная отдельная облачность; BKN – значительная (рассеянная, разорванная) облачность;
-SHRA - слабый ливневой дождь;

Авиационная погода в Липецке

Регион: 
Погода METAR: 
UUOL 190400Z 06009MPS 9999 -RA BKN009 16/16 Q1016 R33/290150 NOSIG
Время наблюдения
2022-08-19T04:00:00Z
Температура C
16.0
Точка росы
16.0
Направление ветра
60
Скорость ветра (узлы)
17
Метео видимость
6.21
Облачность
BKN
Нижняя граница облачности (футы)
900
Явления погоды
-RA
Условия полета
IFR
Аэропорт подробнее: 
BKN – значительная (рассеянная, разорванная) облачность;
-RA - слабый дождь;